Addison Township, Michigan
Current Conditions -  °F | °C
As of 4:33 AM on Friday 31 Oct 2014 (Local Time) from KD95 Reporting Station
Overcast Overcast  
Wind Chill: 42°   Ceiling: 8000
Heat Index: 42°   Visibility: 10mi
Dew Point: 37°   Wind: 3mph
Humidity: 81%   Direction: 220°SW
Pressure: 29.91"   Gusts: NA
Location:  42.8434°N, 83.1398°W
Report Text: KD95 310833Z AUTO 22003KT 10SM SCT033 SCT046 OVC080 06/03 A2991 RMK AO2 T00570027
Loading
Personal Weather Stations






























Interactive Weather Map
Tropical Storm Tracking
New forecast layout! Learn more

10-Day Weather Forecast

Advertisements
Track Severe Weather on mobile